createdAt,value
2023-05-24T04:02:41.113Z,90966.09
2023-05-24T04:05:25.769Z,90967.28
2023-05-24T04:08:10.708Z,90966.06
2023-05-24T04:10:55.433Z,90965.59
2023-05-24T04:13:40.415Z,90978.25
2023-05-24T04:16:25.366Z,90980.22
2023-05-24T04:19:10.289Z,90979.03
2023-05-24T04:21:55.178Z,90982.13
2023-05-24T04:24:40.197Z,90976.59
2023-05-24T04:27:25.200Z,90985.72
2023-05-24T04:30:09.960Z,90980.38
2023-05-24T04:32:55.034Z,90979.84
2023-05-24T04:35:39.760Z,90976.94
2023-05-24T04:38:24.720Z,90971.59
2023-05-24T04:41:09.463Z,90972.59
2023-05-24T04:43:54.381Z,90972.47
2023-05-24T04:46:39.175Z,90978.00
2023-05-24T04:49:24.000Z,90973.94
2023-05-24T04:52:08.817Z,90982.00
2023-05-24T04:54:53.735Z,90974.41
2023-05-24T04:57:38.738Z,90978.66
2023-05-24T05:00:23.524Z,90979.34
2023-05-24T05:03:08.724Z,90983.59
2023-05-24T05:05:53.327Z,90983.94
2023-05-24T05:08:38.254Z,90986.72
2023-05-24T05:11:23.208Z,90977.31
2023-05-24T05:14:08.092Z,90985.06
2023-05-24T05:16:53.074Z,90983.13
2023-05-24T05:19:37.878Z,90985.13
2023-05-24T05:22:22.836Z,90983.13
2023-05-24T05:25:07.659Z,90978.84
2023-05-24T05:27:52.614Z,90979.06
2023-05-24T05:30:37.448Z,90978.44
2023-05-24T05:33:22.425Z,90980.59
2023-05-24T05:36:07.200Z,90982.91
2023-05-24T05:38:52.079Z,90978.34
2023-05-24T05:41:37.075Z,90984.78
2023-05-24T05:44:21.944Z,90982.47
2023-05-24T05:47:06.778Z,90978.84
2023-05-24T05:49:51.538Z,90981.53
2023-05-24T05:52:36.476Z,90981.78
2023-05-24T05:55:21.226Z,90983.69
2023-05-24T05:58:06.143Z,90985.59
2023-05-24T06:00:50.943Z,90988.47
2023-05-24T06:03:35.901Z,90981.41
2023-05-24T06:06:20.675Z,90973.81
2023-05-24T06:09:05.580Z,90979.78
2023-05-24T06:11:50.350Z,90983.28
2023-05-24T06:14:35.201Z,90982.59
2023-05-24T06:17:20.204Z,90979.16
2023-05-24T06:20:05.040Z,90972.69
2023-05-24T06:22:50.011Z,90965.63
2023-05-24T06:25:34.804Z,90967.34
2023-05-24T06:28:19.720Z,90969.94
2023-05-24T06:31:04.594Z,90975.25
2023-05-24T06:34:02.549Z,90964.59
2023-05-24T06:36:48.355Z,90970.25
2023-05-24T06:39:33.181Z,90971.97
2023-05-24T06:42:18.124Z,90972.41
2023-05-24T06:45:03.023Z,90973.41
2023-05-24T06:47:48.156Z,90967.81
2023-05-24T06:50:32.722Z,90977.13
2023-05-24T06:53:17.697Z,90970.66
2023-05-24T06:56:02.610Z,90965.72
2023-05-24T06:58:47.388Z,90969.91
2023-05-24T07:01:32.387Z,90967.75
2023-05-24T07:04:17.249Z,90967.06
2023-05-24T07:07:02.031Z,90969.38
2023-05-24T07:09:46.777Z,90969.69
2023-05-24T07:12:31.791Z,90964.53
2023-05-24T07:15:16.532Z,90967.50
2023-05-24T07:18:01.619Z,90961.75
2023-05-24T07:20:46.669Z,90954.19
2023-05-24T07:23:32.111Z,90965.56
2023-05-24T07:26:16.976Z,90964.25
2023-05-24T07:29:01.813Z,90958.69
2023-05-24T07:31:46.835Z,90952.25
2023-05-24T07:34:31.699Z,90961.09
2023-05-24T07:37:16.834Z,90958.72
2023-05-24T07:40:01.630Z,90958.84
2023-05-24T07:42:46.432Z,90953.91
2023-05-24T07:45:31.292Z,90955.06
2023-05-24T07:48:16.219Z,90954.78
2023-05-24T07:51:00.969Z,90941.47
2023-05-24T07:53:45.827Z,90943.91
2023-05-24T07:56:30.925Z,90938.25
2023-05-24T07:59:15.795Z,90929.78
2023-05-24T08:02:00.755Z,90933.66
2023-05-24T08:04:45.510Z,90933.50
2023-05-24T08:07:30.552Z,90942.84
2023-05-24T08:10:15.291Z,90949.34
2023-05-24T08:13:00.304Z,90946.38
2023-05-24T08:15:45.529Z,90948.06
2023-05-24T08:18:30.255Z,90943.28
2023-05-24T08:21:15.072Z,90937.16
2023-05-24T08:23:59.912Z,90935.03
2023-05-24T08:26:44.900Z,90930.28
2023-05-24T08:29:29.753Z,90937.97
2023-05-24T08:32:14.716Z,90926.91
2023-05-24T08:35:14.863Z,90935.22
2023-05-24T08:38:03.837Z,90929.06
2023-05-24T08:40:48.756Z,90928.69
2023-05-24T08:43:33.476Z,90928.47
2023-05-24T08:46:18.454Z,90929.34
2023-05-24T08:49:03.108Z,90918.97
2023-05-24T08:51:48.033Z,90928.84
2023-05-24T08:54:32.960Z,90923.97
2023-05-24T08:57:17.687Z,90924.63
2023-05-24T09:00:02.742Z,90935.28
2023-05-24T09:05:32.533Z,90927.88
2023-05-24T09:08:17.352Z,90927.75
2023-05-24T09:11:02.372Z,90932.00
2023-05-24T09:13:47.248Z,90933.91
2023-05-24T09:16:32.281Z,90927.19
2023-05-24T09:19:17.077Z,90928.06
2023-05-24T09:22:01.968Z,90911.97
2023-05-24T09:24:46.880Z,90917.78
2023-05-24T09:27:31.703Z,90914.06
2023-05-24T09:30:16.719Z,90914.94
2023-05-24T09:33:01.600Z,90919.28
2023-05-24T09:35:46.416Z,90914.16
2023-05-24T09:38:31.314Z,90911.59
2023-05-24T09:41:16.108Z,90901.31
2023-05-24T09:44:00.855Z,90908.63
2023-05-24T09:46:46.004Z,90900.13
2023-05-24T09:49:30.581Z,90893.63
2023-05-24T09:52:15.474Z,90904.41
2023-05-24T09:55:06.062Z,90892.34
2023-05-24T09:57:50.801Z,90892.06
2023-05-24T10:00:35.776Z,90894.66
2023-05-24T10:03:20.783Z,90890.16
2023-05-24T10:06:05.937Z,90883.59
2023-05-24T10:08:50.701Z,90883.25
2023-05-24T10:11:35.626Z,90878.31
2023-05-24T10:14:20.525Z,90873.59
2023-05-24T10:17:05.612Z,90876.53
2023-05-24T10:19:50.484Z,90877.03
2023-05-24T10:22:35.389Z,90877.97
2023-05-24T10:25:20.367Z,90871.97
2023-05-24T10:28:05.157Z,90865.94
2023-05-24T10:30:50.194Z,90862.28
2023-05-24T10:33:35.171Z,90865.31
2023-05-24T10:36:20.072Z,90864.78
2023-05-24T10:39:04.993Z,90864.28
2023-05-24T10:41:49.792Z,90858.13
2023-05-24T10:44:34.879Z,90853.94
2023-05-24T10:47:19.753Z,90839.72
2023-05-24T10:50:04.651Z,90834.25
2023-05-24T10:52:49.473Z,90832.75
2023-05-24T10:55:34.291Z,90827.50
2023-05-24T10:58:19.090Z,90827.59
2023-05-24T11:01:03.903Z,90823.41
2023-05-24T11:03:48.775Z,90816.25
2023-05-24T11:06:33.521Z,90814.59
2023-05-24T11:09:18.431Z,90805.81
2023-05-24T11:12:03.170Z,90814.66
2023-05-24T11:14:48.109Z,90815.53
2023-05-24T11:17:32.920Z,90819.47
2023-05-24T11:20:17.888Z,90807.78
2023-05-24T11:23:02.753Z,90817.66
2023-05-24T11:25:47.554Z,90833.97
2023-05-24T11:28:32.559Z,90818.66
2023-05-24T11:31:17.342Z,90818.97
2023-05-24T11:34:02.331Z,90806.00
2023-05-24T11:36:47.129Z,90802.19
2023-05-24T11:39:32.100Z,90808.25
2023-05-24T11:42:16.974Z,90793.13
2023-05-24T11:45:01.783Z,90789.22
2023-05-24T11:47:46.725Z,90784.38
2023-05-24T11:50:42.279Z,90771.97
2023-05-24T11:53:33.950Z,90778.16
2023-05-24T11:56:18.958Z,90790.41
2023-05-24T11:59:03.721Z,90776.97
2023-05-24T12:01:48.464Z,90783.81
2023-05-24T12:04:33.510Z,90772.16
2023-05-24T12:07:18.236Z,90780.06
2023-05-24T12:10:03.243Z,90776.56
2023-05-24T12:12:48.223Z,90769.63
2023-05-24T12:15:33.495Z,90762.06
2023-05-24T12:18:18.483Z,90771.34
2023-05-24T12:21:03.279Z,90755.31
2023-05-24T12:23:48.328Z,90758.16
2023-05-24T12:26:33.175Z,90756.88
2023-05-24T12:29:18.246Z,90758.97
2023-05-24T12:32:03.078Z,90752.41
2023-05-24T12:34:47.915Z,90755.50
2023-05-24T12:37:32.822Z,90759.25
2023-05-24T12:40:17.771Z,90754.09
2023-05-24T12:43:02.622Z,90759.25
2023-05-24T12:45:47.436Z,90751.81
2023-05-24T12:48:32.540Z,90746.19
2023-05-24T12:51:17.263Z,90744.91
2023-05-24T12:54:02.084Z,90755.03
2023-05-24T12:56:46.809Z,90762.78
2023-05-24T12:59:31.776Z,90767.06
2023-05-24T13:02:16.778Z,90755.72
2023-05-24T13:05:01.714Z,90750.28
2023-05-24T13:07:46.437Z,90751.03
2023-05-24T13:10:31.293Z,90746.22
2023-05-24T13:13:16.196Z,90739.53
2023-05-24T13:16:01.010Z,90750.13
2023-05-24T13:18:45.846Z,90755.31
2023-05-24T13:21:30.871Z,90761.25
2023-05-24T13:24:16.359Z,90746.44
2023-05-24T13:27:01.411Z,90734.91
2023-05-24T13:29:59.594Z,90728.19
2023-05-24T13:32:45.481Z,90737.53
2023-05-24T13:35:30.276Z,90734.25
2023-05-24T13:38:15.138Z,90734.28
2023-05-24T13:40:59.910Z,90732.88
2023-05-24T13:43:44.872Z,90740.41
2023-05-24T13:46:29.816Z,90735.84
2023-05-24T13:49:14.722Z,90737.47
2023-05-24T13:51:59.618Z,90751.84
2023-05-24T13:54:44.611Z,90757.84
2023-05-24T13:57:39.689Z,90756.63
2023-05-24T14:00:34.345Z,90755.06
2023-05-24T14:03:19.372Z,90752.94
2023-05-24T14:06:04.205Z,90748.88
2023-05-24T14:08:48.953Z,90750.75
2023-05-24T14:11:33.927Z,90755.41
2023-05-24T14:17:06.270Z,90764.56
2023-05-24T14:19:51.060Z,90762.81
2023-05-24T14:22:35.933Z,90760.56
2023-05-24T14:25:20.945Z,90757.94
2023-05-24T14:28:05.854Z,90757.25
2023-05-24T14:30:50.777Z,90764.91
2023-05-24T14:33:35.712Z,90764.75
2023-05-24T14:36:20.570Z,90766.81
2023-05-24T14:39:05.423Z,90765.59
2023-05-24T14:41:50.373Z,90762.38
2023-05-24T14:44:35.166Z,90772.25
2023-05-24T14:47:20.071Z,90765.06
2023-05-24T14:50:04.948Z,90777.00
2023-05-24T14:52:49.857Z,90764.78
2023-05-24T14:55:34.636Z,90766.13
2023-05-24T14:58:19.609Z,90775.97
2023-05-24T15:01:04.694Z,90776.16
2023-05-24T15:03:49.621Z,90772.72
2023-05-24T15:06:34.530Z,90778.97
2023-05-24T15:09:19.261Z,90778.06
2023-05-24T15:12:04.186Z,90782.50
2023-05-24T15:14:48.964Z,90785.50
2023-05-24T15:17:34.071Z,90784.72
2023-05-24T15:20:19.730Z,90794.09
2023-05-24T15:23:04.669Z,90790.56
2023-05-24T15:25:49.575Z,90794.38
2023-05-24T15:28:34.284Z,90791.34
2023-05-24T15:31:19.265Z,90792.00
2023-05-24T15:34:04.083Z,90800.16
2023-05-24T15:36:49.099Z,90786.03
2023-05-24T15:39:34.092Z,90789.44
2023-05-24T15:42:18.882Z,90794.13
2023-05-24T15:45:03.656Z,90794.84
2023-05-24T15:47:48.434Z,90789.84
2023-05-24T15:50:51.929Z,90794.56
2023-05-24T15:53:38.507Z,90798.78
2023-05-24T15:56:23.306Z,90783.09
2023-05-24T15:59:08.191Z,90797.72
2023-05-24T16:01:53.008Z,90786.66
2023-05-24T16:04:37.909Z,90783.41
2023-05-24T16:07:22.757Z,90788.97
2023-05-24T16:10:07.665Z,90776.25
2023-05-24T16:12:52.614Z,90779.34
2023-05-24T16:15:37.558Z,90778.06
2023-05-24T16:18:23.119Z,90776.81
2023-05-24T16:21:08.453Z,90774.19
2023-05-24T16:23:53.488Z,90778.19
2023-05-24T16:26:38.259Z,90778.59
2023-05-24T16:29:23.209Z,90767.16
2023-05-24T16:32:08.147Z,90770.56
2023-05-24T16:34:57.149Z,90769.78
2023-05-24T16:37:42.529Z,90766.97
2023-05-24T16:40:27.358Z,90766.97
2023-05-24T16:43:12.141Z,90767.66
2023-05-24T16:45:57.116Z,90772.66
2023-05-24T16:48:42.025Z,90770.81
2023-05-24T16:51:27.020Z,90770.06
2023-05-24T16:54:11.853Z,90770.09
2023-05-24T16:56:56.733Z,90772.47
2023-05-24T16:59:41.627Z,90772.31
2023-05-24T17:02:26.715Z,90787.13
2023-05-24T17:05:11.390Z,90782.50
2023-05-24T17:08:00.909Z,90788.56
2023-05-24T17:10:45.609Z,90786.88
2023-05-24T17:13:30.407Z,90786.59
2023-05-24T17:16:15.391Z,90788.50
2023-05-24T17:19:00.118Z,90780.56
2023-05-24T17:21:45.152Z,90789.81
2023-05-24T17:24:30.119Z,90785.03
2023-05-24T17:27:14.887Z,90789.97
2023-05-24T17:29:59.840Z,90790.47
2023-05-24T17:32:44.647Z,90787.09
2023-05-24T17:35:29.557Z,90787.59
2023-05-24T17:38:14.327Z,90792.56
2023-05-24T17:40:59.802Z,90795.78
2023-05-24T17:43:44.500Z,90803.59
2023-05-24T17:46:29.451Z,90797.50
2023-05-24T17:49:14.409Z,90794.88
2023-05-24T17:52:00.822Z,90789.13
2023-05-24T17:54:45.847Z,90789.75
2023-05-24T17:57:30.763Z,90788.75
2023-05-24T18:00:15.574Z,90792.69
2023-05-24T18:03:01.087Z,90795.47
2023-05-24T18:05:45.975Z,90794.06
2023-05-24T18:08:30.811Z,90791.38
2023-05-24T18:11:15.632Z,90790.38
2023-05-24T18:14:00.733Z,90786.91
2023-05-24T18:16:45.584Z,90783.19
2023-05-24T18:19:30.550Z,90782.06
2023-05-24T18:22:15.401Z,90791.56
2023-05-24T18:25:00.400Z,90781.25
2023-05-24T18:27:45.187Z,90780.91
2023-05-24T18:30:30.035Z,90784.13
2023-05-24T18:33:14.965Z,90788.97
2023-05-24T18:35:59.786Z,90784.06
2023-05-24T18:38:44.624Z,90784.78
2023-05-24T18:41:29.501Z,90785.63
2023-05-24T18:44:14.321Z,90787.28
2023-05-24T18:46:59.326Z,90791.72
2023-05-24T18:49:44.267Z,90797.38
2023-05-24T18:52:29.037Z,90799.19
2023-05-24T18:55:14.003Z,90799.00
2023-05-24T18:57:58.893Z,90804.56
2023-05-24T19:00:43.881Z,90791.09
2023-05-24T19:03:29.024Z,90796.72
2023-05-24T19:06:14.012Z,90798.41
2023-05-24T19:08:58.905Z,90800.63
2023-05-24T19:11:45.520Z,90805.16
2023-05-24T19:14:31.600Z,90808.97
2023-05-24T19:17:16.538Z,90804.31
2023-05-24T19:20:01.514Z,90803.69
2023-05-24T19:22:46.327Z,90800.88
2023-05-24T19:25:31.089Z,90798.81
2023-05-24T19:28:15.994Z,90805.38
2023-05-24T19:31:00.897Z,90800.34
2023-05-24T19:33:59.364Z,90788.72
2023-05-24T19:36:45.731Z,90801.69
2023-05-24T19:39:30.711Z,90806.91
2023-05-24T19:42:15.559Z,90809.81
2023-05-24T19:45:00.451Z,90813.63
2023-05-24T19:47:45.456Z,90816.28
2023-05-24T19:50:31.401Z,90820.53
2023-05-24T19:53:16.238Z,90816.63
2023-05-24T19:56:00.951Z,90819.19
2023-05-24T19:58:45.927Z,90821.78
2023-05-24T20:01:30.965Z,90830.53
2023-05-24T20:04:15.854Z,90833.09
2023-05-24T20:07:00.618Z,90837.47
2023-05-24T20:09:45.395Z,90842.09
2023-05-24T20:12:30.329Z,90843.66
2023-05-24T20:15:15.216Z,90846.97
2023-05-24T20:18:00.303Z,90844.09
2023-05-24T20:20:45.187Z,90850.16
2023-05-24T20:23:30.083Z,90846.22
2023-05-24T20:26:14.971Z,90849.34
2023-05-24T20:28:59.866Z,90846.13
2023-05-24T20:31:44.881Z,90845.00
2023-05-24T20:34:29.694Z,90847.81
2023-05-24T20:37:14.640Z,90848.94
2023-05-24T20:39:59.460Z,90852.78
2023-05-24T20:42:44.389Z,90852.75
2023-05-24T20:45:29.238Z,90851.31
2023-05-24T20:48:14.306Z,90853.72
2023-05-24T20:50:59.093Z,90851.53
2023-05-24T20:53:43.892Z,90859.31
2023-05-24T20:56:28.709Z,90852.97
2023-05-24T20:59:13.538Z,90851.81
